Time;durP1;ratioP1;P1;durP2;ratioP2;P2;SDS_P1;SDS_P2;PMS_P1;PMS_P2;Temp;Humidity;BMP_temperature;BMP_pressure;BME280_temperature;BME280_humidity;BME280_pressure;Samples;Min_cycle;Max_cycle;Signal;HPM_P1;HPM_P2
2022/12/25 10:20:33;;;;;;;;;12.75;11.50;;;;;11.39;100.00;100886.75;5108850;27;49820;-72
2022/12/25 10:23:02;;;;;;;;;10.75;10.75;;;;;11.55;100.00;100884.38;5108139;27;50121;-71
2022/12/25 10:25:34;;;;;;;;;10.00;9.00;;;;;11.50;100.00;100847.50;5108068;27;50110;-79
2022/12/25 10:28:04;;;;;;;;;10.50;8.75;;;;;11.35;100.00;100782.38;5107718;27;51555;-68
2022/12/25 10:30:30;;;;;;;;;10.50;8.50;;;;;10.97;100.00;100701.97;5108120;27;49854;-76
2022/12/25 10:32:57;;;;;;;;;10.25;9.25;;;;;12.12;100.00;100878.41;5107261;27;49619;-65
2022/12/25 10:35:25;;;;;;;;;12.25;12.25;;;;;12.23;100.00;100864.56;5108805;27;49854;-77
2022/12/25 10:38:17;;;;;;;;;15.00;11.25;;;;;12.59;100.00;100900.22;5107911;27;49874;-81
2022/12/25 10:40:51;;;;;;;;;10.00;8.25;;;;;12.69;100.00;100909.13;5106813;27;49960;-70
2022/12/25 10:43:24;;;;;;;;;11.25;9.00;;;;;12.68;100.00;100873.13;5100628;27;50636;-70
2022/12/25 10:45:49;;;;;;;;;11.75;8.75;;;;;12.50;100.00;100829.84;5113953;27;49958;-69
2022/12/25 10:48:25;;;;;;;;;9.00;9.00;;;;;12.87;100.00;100867.25;5106463;27;49864;-69
2022/12/25 10:50:51;;;;;;;;;13.00;13.00;;;;;13.11;100.00;100880.72;5107130;27;49960;-74
2022/12/25 10:53:27;;;;;;;;;11.50;11.50;;;;;11.96;100.00;100658.91;5107357;27;49815;-78
2022/12/25 10:55:58;;;;;;;;;11.00;10.75;;;;;13.25;100.00;100883.56;5107805;27;50036;-79
2022/12/25 10:58:24;;;;;;;;;9.00;9.00;;;;;13.12;100.00;100832.44;5107111;27;49846;-70
2022/12/25 11:01:07;;;;;;;;;9.50;8.00;;;;;13.18;100.00;100844.78;5106771;27;49917;-68
2022/12/25 11:03:36;;;;;;;;;10.25;10.25;;;;;13.44;100.00;100882.91;5102025;27;49640;-73
2022/12/25 11:06:03;;;;;;;;;5.00;5.00;;;;;13.48;100.00;100902.28;5107376;27;50015;-69
2022/12/25 11:08:31;;;;;;;;;10.25;9.00;;;;;13.52;100.00;100905.84;5108074;27;50549;-68
2022/12/25 11:11:04;;;;;;;;;3.00;3.00;;;;;13.51;100.00;100878.59;5106985;27;49591;-66
2022/12/25 11:13:33;;;;;;;;;9.00;8.00;;;;;13.62;100.00;100873.44;5107006;27;49665;-68
2022/12/25 11:16:08;;;;;;;;;10.50;9.25;;;;;13.67;100.00;100875.22;5113696;27;49844;-72
2022/12/25 11:18:48;;;;;;;;;8.75;7.50;;;;;13.07;100.00;100770.84;5111115;27;50616;-72
2022/12/25 11:21:22;;;;;;;;;7.00;6.25;;;;;13.76;100.00;100879.72;5110631;27;49859;-77
2022/12/25 11:23:54;;;;;;;;;7.75;7.75;;;;;13.73;100.00;100893.75;5106163;27;50039;-71
2022/12/25 11:26:20;;;;;;;;;9.00;5.50;;;;;13.72;100.00;100905.19;5105282;27;50094;-71
2022/12/25 11:28:49;;;;;;;;;6.50;6.50;;;;;13.37;100.00;100844.16;5107526;27;49732;-68
2022/12/25 11:31:19;;;;;;;;;9.75;9.75;;;;;13.69;100.00;100905.13;5097060;27;49777;-74
2022/12/25 11:33:53;;;;;;;;;8.50;6.00;;;;;13.74;100.00;100923.66;5084117;27;49781;-75
2022/12/25 11:36:44;;;;;;;;;7.75;6.75;;;;;13.72;100.00;100917.50;5090748;27;50012;-79
2022/12/25 11:39:18;;;;;;;;;16.00;9.25;;;;;12.42;100.00;100713.03;5095649;27;50627;-75
2022/12/25 11:41:45;;;;;;;;;13.25;12.25;;;;;12.46;100.00;100695.53;5092931;27;49855;-82
2022/12/25 11:44:26;;;;;;;;;13.25;11.25;;;;;13.78;100.00;100911.38;5091307;27;50147;-77
2022/12/25 11:46:54;;;;;;;;;6.75;5.50;;;;;13.76;100.00;100911.38;5098566;27;49943;-78
2022/12/25 11:49:23;;;;;;;;;5.25;4.00;;;;;12.77;100.00;100705.53;5092663;27;50529;-80
2022/12/25 11:51:52;;;;;;;;;2.00;2.00;;;;;12.58;100.00;100677.22;5092543;27;49804;-79
2022/12/25 11:54:28;;;;;;;;;9.00;6.00;;;;;13.84;100.00;100874.50;5090902;27;50123;-81
2022/12/25 11:56:58;;;;;;;;;8.00;7.00;;;;;12.68;100.00;100715.97;5098789;27;50386;-79
2022/12/25 11:59:24;;;;;;;;;8.50;7.75;;;;;13.91;100.00;100878.97;5086450;27;51914;-78
2022/12/25 12:02:08;;;;;;;;;6.75;6.75;;;;;12.84;100.00;100706.50;5092877;27;50143;-76
2022/12/25 12:04:41;;;;;;;;;5.25;5.25;;;;;13.98;100.00;100884.31;5092380;27;49896;-74
2022/12/25 12:07:25;;;;;;;;;6.00;5.00;;;;;13.98;100.00;100878.13;5092431;27;49975;-74
2022/12/25 12:09:57;;;;;;;;;5.50;5.50;;;;;13.99;100.00;100862.34;5102393;27;50137;-74
2022/12/25 12:12:43;;;;;;;;;8.00;6.75;;;;;13.65;100.00;100787.28;5091045;27;49904;-78
2022/12/25 12:15:38;;;;;;;;;6.00;6.00;;;;;14.03;100.00;100869.41;5090689;27;49838;-75
2022/12/25 12:18:08;;;;;;;;;6.25;6.25;;;;;13.24;100.00;100750.00;5092253;27;49693;-76
2022/12/25 12:20:35;;;;;;;;;6.25;5.00;;;;;12.84;100.00;100678.41;5100388;27;49804;-75
2022/12/25 12:23:10;;;;;;;;;7.75;7.75;;;;;13.90;100.00;100851.72;5094402;27;49611;-75
2022/12/25 12:25:39;;;;;;;;;8.50;7.25;;;;;13.98;100.00;100846.47;5092187;27;49761;-74
2022/12/25 12:28:05;;;;;;;;;9.00;7.00;;;;;12.83;100.00;100613.38;5088496;27;49569;-76
2022/12/25 12:30:34;;;;;;;;;7.00;6.25;;;;;13.55;100.00;100714.22;5092367;27;50529;-75
2022/12/25 12:33:03;;;;;;;;;8.50;8.50;;;;;14.33;100.00;100845.00;5092835;27;49996;-75
2022/12/25 12:35:35;;;;;;;;;12.75;6.25;;;;;13.81;100.00;100761.03;5092130;27;49794;-73
2022/12/25 12:38:08;;;;;;;;;8.00;7.00;;;;;14.16;100.00;100829.91;5091839;27;49777;-75
2022/12/25 12:40:38;;;;;;;;;12.25;9.00;;;;;14.24;100.00;100858.13;5091339;27;49792;-74
2022/12/25 12:43:08;;;;;;;;;7.25;6.75;;;;;13.96;100.00;100816.53;5091405;27;49836;-75
2022/12/25 12:45:36;;;;;;;;;7.75;4.50;;;;;13.92;100.00;100794.53;5098324;27;49742;-73
2022/12/25 12:48:13;;;;;;;;;6.00;6.00;;;;;13.64;100.00;100732.75;5092843;27;50037;-79
2022/12/25 12:50:40;;;;;;;;;7.50;6.50;;;;;13.32;100.00;100676.25;5092944;27;50540;-80
2022/12/25 12:53:26;;;;;;;;;5.75;5.00;;;;;13.80;100.00;100749.59;5095556;27;49658;-80
2022/12/25 12:55:52;;;;;;;;;8.50;6.00;;;;;13.60;100.00;100690.50;5091900;27;49845;-76
2022/12/25 12:58:32;;;;;;;;;12.00;9.50;;;;;14.53;100.00;100844.25;5100914;27;49949;-73
2022/12/25 13:01:22;;;;;;;;;9.25;6.50;;;;;14.56;100.00;100850.44;5091101;27;50740;-74
2022/12/25 13:04:09;;;;;;;;;4.00;4.00;;;;;14.67;100.00;100844.31;5086807;27;49722;-78
2022/12/25 13:06:57;;;;;;;;;7.75;6.75;;;;;14.67;100.00;100821.47;5091539;27;49653;-76
2022/12/25 13:09:34;;;;;;;;;10.75;8.00;;;;;14.79;100.00;100837.38;5096631;27;49866;-75
2022/12/25 13:12:05;;;;;;;;;4.00;4.00;;;;;13.54;100.00;100614.88;5103522;27;50800;-76
2022/12/25 13:14:31;;;;;;;;;6.00;5.00;;;;;14.92;100.00;100826.84;5091688;27;49827;-75
2022/12/25 13:16:57;;;;;;;;;5.50;4.50;;;;;14.95;100.00;100843.59;5091487;27;50236;-77
2022/12/25 13:19:26;;;;;;;;;7.75;7.75;;;;;14.94;100.00;100825.09;5090851;27;50807;-75
2022/12/25 13:22:19;;;;;;;;;7.00;7.00;;;;;13.96;100.00;100684.59;5091151;27;51020;-77
2022/12/25 13:24:54;;;;;;;;;5.00;5.00;;;;;13.83;100.00;100630.00;5089829;27;49859;-74
2022/12/25 13:27:27;;;;;;;;;7.25;5.25;;;;;14.92;100.00;100811.00;5091124;27;49808;-75
2022/12/25 13:29:53;;;;;;;;;6.25;5.25;;;;;15.09;100.00;100835.72;5086143;27;50023;-72
2022/12/25 13:32:25;;;;;;;;;5.75;4.75;;;;;14.83;100.00;100790.69;5096851;27;50343;-73
2022/12/25 13:34:51;;;;;;;;;7.00;6.75;;;;;15.11;100.00;100836.63;5099804;27;49957;-70
2022/12/25 13:37:20;;;;;;;;;7.50;6.25;;;;;14.99;100.00;100796.91;5095536;27;50029;-69
2022/12/25 13:39:55;;;;;;;;;6.25;6.00;;;;;15.03;100.00;100822.47;5094018;27;49741;-77
2022/12/25 13:42:23;;;;;;;;;9.00;6.75;;;;;15.04;100.00;100798.69;5096926;27;50751;-73
2022/12/25 13:45:01;;;;;;;;;4.75;4.75;;;;;14.57;100.00;100699.00;5090693;27;49693;-70
2022/12/25 13:47:42;;;;;;;;;5.50;5.50;;;;;15.38;100.00;100833.16;5090698;27;49819;-74
2022/12/25 13:50:21;;;;;;;;;5.25;4.50;;;;;15.10;100.00;100776.69;5092141;27;49989;-78
2022/12/25 13:52:46;;;;;;;;;8.25;7.00;;;;;14.19;100.00;100618.72;5091632;27;49828;-79
2022/12/25 13:55:14;;;;;;;;;9.50;5.50;;;;;15.49;100.00;100818.19;5089659;27;50007;-71
2022/12/25 13:57:48;;;;;;;;;9.50;5.75;;;;;15.50;100.00;100814.66;5090983;27;49829;-71
2022/12/25 14:00:26;;;;;;;;;6.75;5.75;;;;;15.51;100.00;100842.00;5099721;27;50243;-72
2022/12/25 14:02:53;;;;;;;;;6.75;5.00;;;;;15.20;100.00;100777.59;5094708;27;50546;-72
2022/12/25 14:05:31;;;;;;;;;5.75;5.75;;;;;15.43;100.00;100834.03;5090394;27;49733;-72
2022/12/25 14:07:59;;;;;;;;;5.00;4.00;;;;;15.16;100.00;100808.44;5092409;27;49732;-66
2022/12/25 14:10:28;;;;;;;;;7.50;6.75;;;;;14.47;100.00;100722.72;5101858;27;49899;-74
2022/12/25 14:12:58;;;;;;;;;7.50;6.25;;;;;15.35;100.00;100865.78;5104195;27;49973;-71
2022/12/25 14:15:30;;;;;;;;;7.00;7.00;;;;;15.09;100.00;100814.59;5098328;27;49814;-72
2022/12/25 14:17:56;;;;;;;;;10.50;6.75;;;;;15.02;100.00;100818.94;5098805;27;49586;-72
2022/12/25 14:20:25;;;;;;;;;7.00;6.50;;;;;15.24;100.00;100843.69;5097258;27;49854;-73
2022/12/25 14:22:55;;;;;;;;;6.25;6.25;;;;;14.66;100.00;100769.47;5095163;27;50783;-73
2022/12/25 14:25:29;;;;;;;;;6.50;6.00;;;;;15.15;100.00;100847.22;5097163;27;49560;-76
2022/12/25 14:27:55;;;;;;;;;5.75;5.75;;;;;15.09;100.00;100852.47;5104857;27;49726;-73
2022/12/25 14:30:23;;;;;;;;;8.25;7.75;;;;;15.06;100.00;100848.94;5109945;27;49607;-71
2022/12/25 14:32:52;;;;;;;;;7.75;6.00;;;;;14.50;100.00;100736.84;5107979;27;50435;-77
2022/12/25 14:35:18;;;;;;;;;6.00;6.00;;;;;15.19;100.00;100874.56;5100462;27;49618;-74
2022/12/25 14:37:44;;;;;;;;;6.00;6.00;;;;;14.46;100.00;100761.44;5101371;27;49602;-70
2022/12/25 14:40:29;;;;;;;;;8.00;5.75;;;;;14.93;100.00;100805.69;5105777;27;49458;-74
2022/12/25 14:43:04;;;;;;;;;4.25;4.25;;;;;14.86;100.00;100811.84;5103024;27;49547;-74
2022/12/25 14:45:37;;;;;;;;;6.75;5.25;;;;;15.23;100.00;100846.34;5099636;27;49596;-73
2022/12/25 14:48:24;;;;;;;;;6.00;5.00;;;;;14.46;100.00;100719.19;5089022;27;49904;-72
2022/12/25 14:51:00;;;;;;;;;5.75;5.75;;;;;15.18;100.00;100867.50;5092896;27;49913;-73
2022/12/25 14:53:46;;;;;;;;;6.00;5.00;;;;;15.16;100.00;100859.56;5105540;27;50959;-73
2022/12/25 14:56:17;;;;;;;;;10.00;7.25;;;;;14.80;100.00;100838.25;5099588;27;49540;-73
2022/12/25 14:58:48;;;;;;;;;10.75;9.25;;;;;14.02;100.00;100708.38;5086783;27;49936;-70
2022/12/25 15:01:28;;;;;;;;;9.00;6.75;;;;;14.49;100.00;100794.94;5099490;27;49815;-76
2022/12/25 15:04:09;;;;;;;;;4.50;3.75;;;;;15.04;100.00;100867.41;5103712;27;49959;-72
2022/12/25 15:06:37;;;;;;;;;4.00;3.75;;;;;14.33;100.00;100770.16;5097938;27;49831;-78
2022/12/25 15:09:05;;;;;;;;;9.00;5.00;;;;;13.63;100.00;100625.47;5099703;27;49732;-72
2022/12/25 15:11:31;;;;;;;;;6.25;4.00;;;;;14.43;100.00;100756.13;5098852;27;50075;-73
2022/12/25 15:13:57;;;;;;;;;6.25;5.50;;;;;14.18;100.00;100718.13;5104048;27;50955;-72
2022/12/25 15:16:36;;;;;;;;;7.25;7.25;;;;;14.73;100.00;100847.03;5096747;27;49801;-78
2022/12/25 15:19:01;;;;;;;;;8.75;7.00;;;;;14.09;100.00;100747.16;5100339;27;49978;-72
2022/12/25 15:21:35;;;;;;;;;11.00;11.00;;;;;14.95;100.00;100869.16;5097612;27;49927;-75
2022/12/25 15:24:03;;;;;;;;;5.75;5.75;;;;;13.58;100.00;100658.84;5104748;27;50340;-73
2022/12/25 15:26:30;;;;;;;;;10.50;7.00;;;;;14.44;100.00;100801.91;5108919;27;49689;-74
2022/12/25 15:28:58;;;;;;;;;7.00;6.00;;;;;14.83;100.00;100875.25;5105574;27;49657;-79
2022/12/25 15:31:29;;;;;;;;;5.00;5.00;;;;;13.91;100.00;100723.28;5112996;27;49478;-81
2022/12/25 15:33:57;;;;;;;;;6.25;6.00;;;;;14.79;100.00;100882.28;5112631;27;49555;-77
2022/12/25 15:36:23;;;;;;;;;9.50;6.50;;;;;13.20;100.00;100592.66;5112602;27;49517;-81
2022/12/25 15:38:48;;;;;;;;;11.00;8.25;;;;;14.77;100.00;100891.97;5110166;27;49671;-79
2022/12/25 15:44:09;;;;;;;;;9.25;7.25;;;;;14.77;100.00;100878.78;5102349;27;49680;-82
2022/12/25 15:46:37;;;;;;;;;8.25;6.50;;;;;14.17;100.00;100769.19;5108189;27;49312;-76
2022/12/25 15:49:03;;;;;;;;;6.00;6.00;;;;;14.28;100.00;100782.44;5105751;27;49946;-78
2022/12/25 15:51:32;;;;;;;;;6.50;6.50;;;;;13.88;100.00;100721.47;5109398;27;49276;-79
2022/12/25 15:53:58;;;;;;;;;6.00;5.50;;;;;13.57;100.00;100698.41;5111442;27;52461;-74
2022/12/25 15:56:24;;;;;;;;;7.75;7.75;;;;;14.16;100.00;100779.72;5106100;27;49481;-77
2022/12/25 15:58:50;;;;;;;;;6.25;6.25;;;;;13.60;100.00;100714.25;5105335;27;50133;-77
2022/12/25 16:01:17;;;;;;;;;6.25;6.25;;;;;13.77;100.00;100759.22;5104161;27;49933;-76
2022/12/25 16:03:43;;;;;;;;;7.00;7.00;;;;;14.07;100.00;100804.31;5093800;27;50045;-72
2022/12/25 16:06:14;;;;;;;;;10.25;8.00;;;;;13.18;100.00;100661.13;5092350;27;49718;-76
2022/12/25 16:08:45;;;;;;;;;7.25;7.25;;;;;13.92;100.00;100793.66;5101787;27;49885;-82
2022/12/25 16:11:11;;;;;;;;;7.50;7.00;;;;;14.50;100.00;100894.44;5108112;27;49770;-86
2022/12/25 16:13:36;;;;;;;;;10.50;6.75;;;;;14.24;100.00;100847.56;5108532;27;51511;-74
2022/12/25 16:16:02;;;;;;;;;10.00;7.00;;;;;14.06;100.00;100833.34;5108455;27;50632;-77
2022/12/25 16:18:29;;;;;;;;;7.00;7.00;;;;;13.89;100.00;100817.38;5097767;27;49718;-79
2022/12/25 16:20:55;;;;;;;;;8.75;7.75;;;;;14.35;100.00;100933.91;5104253;27;49994;-82
2022/12/25 16:23:21;;;;;;;;;10.50;8.00;;;;;12.96;100.00;100708.38;5101234;27;49913;-78
2022/12/25 16:25:47;;;;;;;;;7.50;7.50;;;;;12.88;100.00;100706.53;5104018;27;49406;-73
2022/12/25 16:28:15;;;;;;;;;10.00;9.75;;;;;14.26;100.00;100963.75;5111112;27;49565;-79
2022/12/25 16:30:41;;;;;;;;;5.75;5.75;;;;;13.67;100.00;100859.41;5090529;27;49814;-75
2022/12/25 16:33:19;;;;;;;;;5.75;5.25;;;;;14.20;100.00;100969.88;5106703;27;51581;-86
2022/12/25 16:35:45;;;;;;;;;6.00;6.00;;;;;14.21;100.00;100950.53;5094678;27;49691;-77
2022/12/25 16:38:11;;;;;;;;;12.25;8.50;;;;;14.00;100.00;100919.53;5098721;27;49888;-77
2022/12/25 16:40:36;;;;;;;;;7.00;6.00;;;;;14.22;100.00;100948.78;5106259;27;49753;-79
2022/12/25 16:43:02;;;;;;;;;10.00;9.25;;;;;13.31;100.00;100801.88;5110083;27;49793;-77
2022/12/25 16:45:27;;;;;;;;;7.75;7.25;;;;;13.13;100.00;100796.41;5097797;27;49756;-73
2022/12/25 16:47:52;;;;;;;;;7.00;6.50;;;;;13.73;100.00;100867.38;5095000;27;49976;-75
2022/12/25 16:50:18;;;;;;;;;8.25;7.00;;;;;14.05;100.00;100956.53;5103092;27;49517;-74
2022/12/25 16:52:43;;;;;;;;;9.50;9.50;;;;;14.19;100.00;100940.84;5108721;27;49861;-75
2022/12/25 16:55:09;;;;;;;;;8.75;8.00;;;;;13.79;100.00;100882.38;5103604;27;49695;-80
2022/12/25 16:57:34;;;;;;;;;5.75;4.75;;;;;13.73;100.00;100853.31;5110579;27;49379;-82
2022/12/25 16:59:59;;;;;;;;;12.00;10.50;;;;;14.02;100.00;100903.72;5105576;27;49640;-77
2022/12/25 17:02:25;;;;;;;;;9.75;9.50;;;;;14.22;100.00;100927.66;5105145;27;50057;-77
2022/12/25 17:04:50;;;;;;;;;10.75;9.00;;;;;14.23;100.00;100930.28;5102498;27;49821;-80
2022/12/25 17:07:17;;;;;;;;;15.75;13.25;;;;;14.00;100.00;100879.06;5098447;27;50122;-77
2022/12/25 17:09:45;;;;;;;;;13.00;11.00;;;;;13.73;100.00;100832.19;5097714;27;50043;-75
2022/12/25 17:12:11;;;;;;;;;9.50;8.00;;;;;14.09;100.00;100892.34;5094303;27;50335;-76
2022/12/25 17:14:36;;;;;;;;;9.00;8.25;;;;;14.24;100.00;100918.84;5099946;27;49424;-69
2022/12/25 17:17:02;;;;;;;;;18.75;16.75;;;;;14.12;100.00;100904.69;5108053;27;49769;-69
2022/12/25 17:19:28;;;;;;;;;11.75;11.00;;;;;14.17;100.00;100911.75;5111124;27;49595;-69
2022/12/25 17:21:53;;;;;;;;;11.75;11.75;;;;;14.27;100.00;100944.41;5084370;27;49814;-69
2022/12/25 17:24:20;;;;;;;;;14.25;12.25;;;;;14.13;100.00;100915.25;5110312;27;49410;-68
2022/12/25 17:26:46;;;;;;;;;10.25;9.75;;;;;14.16;100.00;100917.91;5101474;27;49699;-69
2022/12/25 17:29:12;;;;;;;;;13.25;12.50;;;;;14.13;100.00;100923.16;5091282;27;49963;-69
2022/12/25 17:31:38;;;;;;;;;8.75;8.00;;;;;14.28;100.00;100947.06;5095503;27;49803;-69
2022/12/25 17:34:05;;;;;;;;;13.00;11.25;;;;;14.26;100.00;100932.06;5077044;27;49889;-69
2022/12/25 17:36:31;;;;;;;;;10.75;9.00;;;;;14.27;100.00;100939.13;5097293;27;49642;-69
2022/12/25 17:39:01;;;;;;;;;14.25;12.00;;;;;14.16;100.00;100927.56;5095492;27;49378;-68
2022/12/25 17:41:27;;;;;;;;;11.75;8.75;;;;;14.08;100.00;100910.78;5110912;27;49467;-80
2022/12/25 17:43:57;;;;;;;;;8.75;6.75;;;;;14.33;100.00;100952.38;5101306;27;49817;-78
2022/12/25 17:46:25;;;;;;;;;9.25;7.50;;;;;14.35;100.00;100945.34;5089269;27;49681;-69
2022/12/25 17:48:53;;;;;;;;;10.75;9.00;;;;;14.23;100.00;100932.06;5091398;27;49849;-71
2022/12/25 17:51:21;;;;;;;;;10.00;9.25;;;;;14.10;100.00;100896.75;5084480;27;50520;-69
2022/12/25 17:53:48;;;;;;;;;9.00;8.00;;;;;14.31;100.00;100938.28;5095022;27;49895;-72
2022/12/25 17:56:15;;;;;;;;;14.25;9.50;;;;;14.14;100.00;100917.00;5082869;27;49861;-69
2022/12/25 17:58:41;;;;;;;;;9.75;8.00;;;;;14.31;100.00;100957.66;5089967;27;49913;-69
2022/12/25 18:01:09;;;;;;;;;9.25;9.00;;;;;14.32;100.00;100962.06;5089033;27;50678;-70
2022/12/25 18:03:35;;;;;;;;;12.00;8.75;;;;;14.31;100.00;100949.72;5091032;27;50083;-70
2022/12/25 18:06:07;;;;;;;;;10.25;9.00;;;;;13.99;100.00;100894.03;5090980;27;49881;-77
2022/12/25 18:08:33;;;;;;;;;14.50;10.00;;;;;13.44;100.00;100805.56;5089314;27;49825;-73
2022/12/25 18:11:05;;;;;;;;;8.25;7.25;;;;;13.77;100.00;100856.84;5089207;27;51456;-70
2022/12/25 18:13:31;;;;;;;;;10.50;10.25;;;;;13.44;100.00;100842.47;5084783;27;49996;-72
2022/12/25 18:16:01;;;;;;;;;8.00;7.25;;;;;13.63;100.00;100872.56;5081226;27;49944;-73
2022/12/25 18:18:27;;;;;;;;;9.25;9.25;;;;;14.26;100.00;100959.34;5089558;27;49753;-72
2022/12/25 18:20:53;;;;;;;;;7.00;7.00;;;;;14.18;100.00;100939.03;5090521;27;49853;-70
2022/12/25 18:23:19;;;;;;;;;12.50;10.50;;;;;14.15;100.00;100950.47;5090933;27;49677;-72
2022/12/25 18:25:44;;;;;;;;;10.75;10.50;;;;;14.19;100.00;100972.50;5090628;27;49845;-72
2022/12/25 18:28:10;;;;;;;;;14.75;12.50;;;;;13.51;100.00;100873.31;5090663;27;49975;-73
2022/12/25 18:30:39;;;;;;;;;8.25;7.75;;;;;14.14;100.00;100972.44;5090146;27;50170;-77
2022/12/25 18:33:05;;;;;;;;;8.50;8.50;;;;;14.07;100.00;100970.63;5090594;27;49752;-74
2022/12/25 18:35:30;;;;;;;;;13.25;12.00;;;;;14.03;100.00;100961.78;5090696;27;50398;-73
2022/12/25 18:37:56;;;;;;;;;9.50;6.75;;;;;12.79;100.00;100768.78;5090846;27;50556;-74
2022/12/25 18:40:21;;;;;;;;;8.25;7.50;;;;;14.08;100.00;100980.31;5091803;27;50061;-74
2022/12/25 18:42:50;;;;;;;;;9.00;9.00;;;;;13.64;100.00;100921.81;5094049;27;49774;-74
2022/12/25 18:45:17;;;;;;;;;11.75;11.00;;;;;13.84;100.00;100951.91;5094024;27;49763;-73
2022/12/25 18:47:42;;;;;;;;;7.00;6.25;;;;;13.55;100.00;100898.84;5092489;27;49655;-73
2022/12/25 18:50:09;;;;;;;;;7.00;7.00;;;;;13.96;100.00;100981.06;5093704;27;49914;-74
2022/12/25 18:52:35;;;;;;;;;9.75;7.00;;;;;13.80;100.00;100936.94;5093975;27;49822;-74
2022/12/25 18:55:01;;;;;;;;;9.50;7.50;;;;;14.02;100.00;100980.25;5093907;27;49756;-74
2022/12/25 18:57:26;;;;;;;;;6.75;6.75;;;;;13.56;100.00;100905.00;5094374;27;50208;-73
2022/12/25 18:59:52;;;;;;;;;9.25;8.00;;;;;12.61;100.00;100767.69;5093574;27;49901;-73
2022/12/25 19:02:18;;;;;;;;;7.00;7.00;;;;;13.83;100.00;100963.34;5093431;27;49676;-73
2022/12/25 19:04:43;;;;;;;;;11.00;8.00;;;;;13.91;100.00;100966.06;5089654;27;49838;-73
2022/12/25 19:07:09;;;;;;;;;10.00;8.25;;;;;14.08;100.00;101004.06;5092054;27;49696;-72
2022/12/25 19:09:35;;;;;;;;;7.00;7.00;;;;;14.08;100.00;100998.78;5087071;27;50776;-72
2022/12/25 19:12:00;;;;;;;;;7.50;6.50;;;;;13.63;100.00;100931.47;5092167;27;50633;-72
2022/12/25 19:14:29;;;;;;;;;7.50;6.50;;;;;13.51;100.00;100915.50;5089057;27;49897;-72
2022/12/25 19:16:55;;;;;;;;;9.75;6.00;;;;;14.01;100.00;100997.84;5092063;27;50021;-72
2022/12/25 19:19:22;;;;;;;;;12.00;8.50;;;;;14.11;100.00;101014.66;5091381;27;50775;-72
2022/12/25 19:21:52;;;;;;;;;10.00;7.00;;;;;13.89;100.00;100981.88;5091809;27;49904;-72
2022/12/25 19:24:17;;;;;;;;;6.50;4.75;;;;;13.38;100.00;100887.22;5090388;27;50331;-73
2022/12/25 19:26:43;;;;;;;;;7.75;7.75;;;;;14.03;100.00;100984.66;5091813;27;49884;-73
2022/12/25 19:29:08;;;;;;;;;7.00;5.25;;;;;14.20;100.00;100998.94;5091930;27;50664;-73
2022/12/25 19:31:34;;;;;;;;;10.75;7.75;;;;;13.99;100.00;100990.75;5091652;27;49607;-73
2022/12/25 19:33:59;;;;;;;;;7.75;7.50;;;;;13.49;100.00;100917.22;5084115;27;49829;-73
2022/12/25 19:36:24;;;;;;;;;8.25;5.00;;;;;14.16;100.00;100993.59;5088553;27;49860;-73
2022/12/25 19:38:50;;;;;;;;;8.00;8.00;;;;;13.88;100.00;100950.19;5090854;27;50427;-74
2022/12/25 19:41:17;;;;;;;;;6.00;6.00;;;;;14.23;100.00;101006.88;5092184;27;50161;-72
2022/12/25 19:43:46;;;;;;;;;7.00;7.00;;;;;14.18;100.00;100978.63;5091343;27;50912;-72
2022/12/25 19:46:20;;;;;;;;;8.75;8.75;;;;;14.23;100.00;101016.53;5089628;27;49995;-73
2022/12/25 19:48:46;;;;;;;;;5.00;5.00;;;;;13.22;100.00;100880.00;5089231;27;49980;-73
2022/12/25 19:51:17;;;;;;;;;7.50;6.75;;;;;13.94;100.00;100972.25;5090435;27;49787;-72
2022/12/25 19:53:42;;;;;;;;;7.75;7.00;;;;;13.78;100.00;100948.31;5088724;27;49980;-75
2022/12/25 19:56:08;;;;;;;;;10.25;10.00;;;;;14.25;100.00;101028.00;5090235;27;49920;-71
2022/12/25 19:58:34;;;;;;;;;12.75;8.75;;;;;14.00;100.00;100987.28;5086919;27;50925;-72
2022/12/25 20:01:04;;;;;;;;;10.25;8.25;;;;;14.11;100.00;101008.50;5091824;27;49722;-73
2022/12/25 20:03:31;;;;;;;;;11.75;9.25;;;;;13.86;100.00;100975.69;5092862;27;49873;-75
2022/12/25 20:05:59;;;;;;;;;6.50;6.50;;;;;13.82;100.00;100998.53;5091556;27;49824;-75
2022/12/25 20:08:24;;;;;;;;;13.25;9.75;;;;;14.17;100.00;101021.75;5092684;27;49705;-73
2022/12/25 20:10:50;;;;;;;;;6.50;6.25;;;;;14.01;100.00;101011.06;5092897;27;50188;-72
2022/12/25 20:13:15;;;;;;;;;15.50;8.75;;;;;14.11;100.00;101022.59;5092836;27;50132;-73
2022/12/25 20:15:41;;;;;;;;;8.50;7.50;;;;;14.01;100.00;100997.84;5092607;27;49601;-71
2022/12/25 20:18:06;;;;;;;;;7.75;6.75;;;;;14.29;100.00;101048.31;5085486;27;49773;-72
2022/12/25 20:20:31;;;;;;;;;7.50;7.50;;;;;14.11;100.00;101027.00;5091880;27;53923;-70
2022/12/25 20:22:57;;;;;;;;;7.75;6.00;;;;;14.12;100.00;101031.41;5103834;27;49659;-72
2022/12/25 20:25:22;;;;;;;;;5.00;5.00;;;;;13.85;100.00;100984.47;5099196;27;49801;-76
2022/12/25 20:27:47;;;;;;;;;1.00;1.00;;;;;13.60;100.00;100939.31;5093982;27;49849;-72
2022/12/25 20:30:13;;;;;;;;;5.75;5.50;;;;;14.06;100.00;101026.03;5092330;27;54985;-74
2022/12/25 20:32:38;;;;;;;;;9.00;7.25;;;;;13.21;100.00;100905.47;5109150;27;49962;-76
2022/12/25 20:35:04;;;;;;;;;7.50;7.00;;;;;14.13;100.00;101030.53;5096970;27;49813;-77
2022/12/25 20:37:30;;;;;;;;;8.00;8.00;;;;;13.95;100.00;100996.91;5094575;27;50522;-72
2022/12/25 20:39:56;;;;;;;;;6.00;6.00;;;;;13.65;100.00;100961.38;5089463;27;49922;-83
2022/12/25 20:42:21;;;;;;;;;8.00;7.00;;;;;13.10;100.00;100888.59;5098786;27;49870;-77
2022/12/25 20:44:47;;;;;;;;;12.25;7.75;;;;;13.02;100.00;100866.53;5095171;27;49678;-75
2022/12/25 20:47:12;;;;;;;;;6.25;6.00;;;;;14.11;100.00;101046.34;5094248;27;52725;-78
2022/12/25 20:49:37;;;;;;;;;5.00;5.00;;;;;14.37;100.00;101088.84;5093732;27;49866;-78
2022/12/25 20:52:03;;;;;;;;;5.75;4.00;;;;;13.57;100.00;100980.63;5092063;27;49820;-76
2022/12/25 20:54:29;;;;;;;;;6.75;4.75;;;;;14.28;100.00;101076.47;5093050;27;49683;-77
2022/12/25 20:56:55;;;;;;;;;4.75;4.75;;;;;14.35;100.00;101080.03;5094935;27;49988;-77
2022/12/25 20:59:20;;;;;;;;;7.50;7.50;;;;;14.46;100.00;101107.47;5093972;27;49706;-70
2022/12/25 21:01:46;;;;;;;;;8.00;7.00;;;;;14.31;100.00;101091.47;5092307;27;49954;-77
2022/12/25 21:04:11;;;;;;;;;5.25;5.25;;;;;13.17;100.00;100924.72;5097121;27;49745;-75
2022/12/25 21:06:37;;;;;;;;;8.00;7.00;;;;;13.22;100.00;100917.81;5094847;27;50163;-76
2022/12/25 21:09:02;;;;;;;;;8.25;4.00;;;;;13.54;100.00;100959.50;5101882;27;49596;-86
2022/12/25 21:11:30;;;;;;;;;5.75;4.00;;;;;14.23;100.00;101119.53;5093750;27;49796;-73
2022/12/25 21:13:56;;;;;;;;;5.00;5.00;;;;;14.44;100.00;101150.56;5092195;27;49826;-73
2022/12/25 21:16:22;;;;;;;;;5.00;5.00;;;;;13.67;100.00;100993.06;5087403;27;49817;-73
2022/12/25 21:18:49;;;;;;;;;8.00;6.50;;;;;14.18;100.00;101103.63;5091125;27;49904;-72
2022/12/25 21:21:14;;;;;;;;;4.75;4.75;;;;;14.43;100.00;101165.53;5091208;27;49837;-73
2022/12/25 21:23:40;;;;;;;;;7.25;5.25;;;;;13.44;100.00;100987.50;5090024;27;49945;-73
2022/12/25 21:26:17;;;;;;;;;10.00;8.00;;;;;13.62;100.00;101034.34;5089434;27;49832;-73
2022/12/25 21:28:42;;;;;;;;;6.25;5.75;;;;;13.04;100.00;100905.25;5084582;27;49738;-73
2022/12/25 21:31:08;;;;;;;;;6.00;5.25;;;;;13.03;100.00;100926.31;5090783;27;49981;-73
2022/12/25 21:33:53;;;;;;;;;6.00;6.00;;;;;14.40;100.00;101135.56;5091299;27;49828;-73
2022/12/25 21:36:18;;;;;;;;;4.25;4.25;;;;;14.40;100.00;101132.94;5086416;27;50013;-75
2022/12/25 21:38:47;;;;;;;;;8.75;6.25;;;;;14.22;100.00;101099.28;5091258;27;49892;-73
2022/12/25 21:41:13;;;;;;;;;7.00;6.00;;;;;14.40;100.00;101130.28;5091231;27;49980;-73
2022/12/25 21:43:41;;;;;;;;;6.75;6.50;;;;;14.10;100.00;101085.94;5091306;27;49935;-73
2022/12/25 21:46:10;;;;;;;;;10.50;7.00;;;;;13.52;100.00;101008.72;5090682;27;49784;-73